Terminal Aerodrome Forecast
Issued by NWS

Home | Current Version | Previous Version | Text Only | Print | Product List | Glossary On
Versions: 1 2 3 4 5 6 7 8 9 10 11 12 13 14 15 16
000
FTAK31 PAJN 211500 AAA
TAFAWG
TAF AMD
PAWG 211536Z 2116/2212 14015G25KT P6SM VCSH BKN035 OVC050
      TEMPO 2116/2119 4SM -RA FEW015 OVC025
     FM211900 15012KT 6SM -RA BR BKN025 OVC035
     FM212200 12005KT P6SM -SHRA SCT025 OVC035
     FM220300 VRB05KT 6SM BR VCSH SCT025 OVC050=

USA.gov is the U.S. government's official web portal to all federal, state and local government web resources and services.